Private Wetterstation Sandau
Wetterdaten: Dienstag, 14.02.2012
Datum Zeit Temp. A. Feuchte A. Luftdruck Regen Wind Richtung Richtung Taupunkt Windchill
14.02.2012 00:02 -3,7 C 84 % 1017,2 hPa 0,0 l/m 0,0 km/h (0 Bft) O-SO 112 -6,0 C -3,7 C
14.02.2012 00:07 -3,7 C 84 % 1017,0 hPa 0,0 l/m 0,0 km/h (0 Bft) O-SO 112 -6,0 C -3,7 C
14.02.2012 00:12 -3,7 C 84 % 1017,0 hPa 0,0 l/m 2,2 km/h (1 Bft) SO 135 -6,0 C -3,7 C
14.02.2012 00:17 -3,7 C 84 % 1016,8 hPa 0,0 l/m 1,1 km/h (1 Bft) O-SO 112 -6,0 C -3,7 C
14.02.2012 00:22 -3,7 C 84 % 1017,1 hPa 0,0 l/m 1,8 km/h (1 Bft) O-SO 112 -6,0 C -3,7 C
14.02.2012 00:27 -3,6 C 84 % 1016,9 hPa 0,0 l/m 0,0 km/h (0 Bft) O-SO 112 -5,9 C -3,6 C
14.02.2012 00:32 -3,6 C 85 % 1017,1 hPa 0,0 l/m 0,0 km/h (0 Bft) O-SO 112 -5,7 C -3,6 C
14.02.2012 00:37 -3,5 C 85 % 1016,9 hPa 0,0 l/m 0,0 km/h (0 Bft) O-SO 112 -5,6 C -3,5 C
14.02.2012 00:42 -3,4 C 85 % 1016,8 hPa 0,0 l/m 2,5 km/h (1 Bft) O-SO 112 -5,5 C -3,4 C
14.02.2012 00:47 -3,3 C 85 % 1017,0 hPa 0,0 l/m 0,0 km/h (0 Bft) O-SO 112 -5,5 C -3,3 C
14.02.2012 00:52 -3,2 C 85 % 1016,7 hPa 0,0 l/m 3,2 km/h (1 Bft) SO 135 -5,4 C -3,2 C
14.02.2012 00:57 -3,2 C 85 % 1016,8 hPa 0,0 l/m 0,0 km/h (0 Bft) SO 135 -5,4 C -3,2 C
14.02.2012 01:02 -3,2 C 85 % 1017,0 hPa 0,0 l/m 0,0 km/h (0 Bft) SO 135 -5,4 C -3,2 C
14.02.2012 01:07 -3,1 C 85 % 1017,0 hPa 0,0 l/m 3,6 km/h (1 Bft) O-SO 112 -5,3 C -3,1 C
14.02.2012 01:12 -3,1 C 85 % 1016,9 hPa 0,0 l/m 0,0 km/h (0 Bft) O-SO 112 -5,3 C -3,1 C
14.02.2012 01:17 -3,1 C 84 % 1017,0 hPa 0,0 l/m 4,7 km/h (1 Bft) O-SO 112 -5,4 C -4,9 C
14.02.2012 01:22 -3,1 C 84 % 1016,9 hPa 0,0 l/m 3,2 km/h (1 Bft) O-SO 112 -5,4 C -3,1 C
14.02.2012 01:27 -3,1 C 84 % 1016,9 hPa 0,0 l/m 5,0 km/h (1 Bft) O-SO 112 -5,4 C -5,1 C
14.02.2012 01:32 -3,1 C 84 % 1016,9 hPa 0,0 l/m 0,0 km/h (0 Bft) O-SO 112 -5,4 C -3,1 C
14.02.2012 01:37 -3,1 C 84 % 1016,8 hPa 0,0 l/m 3,6 km/h (1 Bft) O-SO 112 -5,4 C -3,1 C
14.02.2012 01:42 -3,1 C 85 % 1016,8 hPa 0,0 l/m 3,6 km/h (1 Bft) O-SO 112 -5,3 C -3,1 C
14.02.2012 01:47 -3,1 C 85 % 1016,8 hPa 0,0 l/m 6,1 km/h (2 Bft) O-SO 112 -5,3 C -5,6 C
14.02.2012 01:52 -3,1 C 85 % 1016,9 hPa 0,0 l/m 0,0 km/h (0 Bft) O-SO 112 -5,3 C -3,1 C
14.02.2012 01:57 -3,1 C 85 % 1016,7 hPa 0,0 l/m 4,0 km/h (1 Bft) O-SO 112 -5,3 C -3,1 C
14.02.2012 02:02 -3,0 C 85 % 1016,7 hPa 0,0 l/m 1,4 km/h (1 Bft) O-SO 112 -5,2 C -3,0 C
14.02.2012 02:07 -2,9 C 85 % 1016,8 hPa 0,0 l/m 0,0 km/h (0 Bft) O-SO 112 -5,1 C -2,9 C
14.02.2012 02:12 -2,9 C 85 % 1016,8 hPa 0,0 l/m 2,9 km/h (1 Bft) O-SO 112 -5,1 C -2,9 C
14.02.2012 02:17 -2,9 C 85 % 1016,8 hPa 0,0 l/m 3,2 km/h (1 Bft) O-SO 112 -5,1 C -2,9 C
14.02.2012 02:22 -2,8 C 85 % 1016,8 hPa 0,0 l/m 1,8 km/h (1 Bft) O-SO 112 -5,0 C -2,8 C
14.02.2012 02:27 -2,8 C 85 % 1016,7 hPa 0,0 l/m 1,1 km/h (1 Bft) O-SO 112 -5,0 C -2,8 C
14.02.2012 02:32 -2,8 C 85 % 1016,7 hPa 0,0 l/m 0,0 km/h (0 Bft) S 180 -5,0 C -2,8 C
14.02.2012 02:37 -2,7 C 85 % 1016,7 hPa 0,0 l/m 0,0 km/h (0 Bft) W 270 -4,9 C -2,7 C
14.02.2012 02:42 -2,7 C 85 % 1016,7 hPa 0,0 l/m 2,2 km/h (1 Bft) S-SW 202 -4,9 C -2,7 C
14.02.2012 02:47 -2,6 C 85 % 1016,7 hPa 0,0 l/m 0,0 km/h (0 Bft) SW 225 -4,8 C -2,6 C
14.02.2012 02:52 -2,6 C 85 % 1016,7 hPa 0,0 l/m 0,0 km/h (0 Bft) S-SW 202 -4,8 C -2,6 C
14.02.2012 02:57 -2,6 C 85 % 1016,8 hPa 0,0 l/m 0,0 km/h (0 Bft) S-SW 202 -4,8 C -2,6 C
14.02.2012 03:02 -2,5 C 85 % 1016,7 hPa 0,0 l/m 0,0 km/h (0 Bft) S-SW 202 -4,7 C -2,5 C
14.02.2012 03:07 -2,5 C 85 % 1016,7 hPa 0,0 l/m 1,8 km/h (1 Bft) S-SW 202 -4,7 C -2,5 C
14.02.2012 03:12 -2,5 C 85 % 1016,6 hPa 0,0 l/m 0,0 km/h (0 Bft) S-SW 202 -4,7 C -2,5 C
14.02.2012 03:17 -2,5 C 85 % 1016,4 hPa 0,0 l/m 2,2 km/h (1 Bft) W-SW 247 -4,7 C -2,5 C
14.02.2012 03:22 -2,4 C 85 % 1016,5 hPa 0,0 l/m 0,0 km/h (0 Bft) S-SW 202 -4,6 C -2,4 C
14.02.2012 03:27 -2,4 C 85 % 1016,6 hPa 0,0 l/m 0,0 km/h (0 Bft) S-SW 202 -4,6 C -2,4 C
14.02.2012 03:32 -2,4 C 85 % 1016,5 hPa 0,0 l/m 0,0 km/h (0 Bft) S-SW 202 -4,6 C -2,4 C
14.02.2012 03:37 -2,4 C 85 % 1016,3 hPa 0,0 l/m 0,0 km/h (0 Bft) S-SW 202 -4,6 C -2,4 C
14.02.2012 03:42 -2,4 C 85 % 1016,2 hPa 0,0 l/m 3,6 km/h (1 Bft) SO 135 -4,6 C -2,4 C
14.02.2012 03:47 -2,4 C 85 % 1016,1 hPa 0,0 l/m 1,4 km/h (1 Bft) SO 135 -4,6 C -2,4 C
14.02.2012 03:52 -2,4 C 85 % 1016,1 hPa 0,0 l/m 3,6 km/h (1 Bft) SO 135 -4,6 C -2,4 C
14.02.2012 03:57 -2,5 C 85 % 1016,1 hPa 0,0 l/m 1,8 km/h (1 Bft) SO 135 -4,7 C -2,5 C
14.02.2012 04:02 -2,5 C 85 % 1016,1 hPa 0,0 l/m 1,4 km/h (1 Bft) SO 135 -4,7 C -2,5 C
14.02.2012 04:07 -2,6 C 85 % 1016,2 hPa 0,0 l/m 0,0 km/h (0 Bft) SO 135 -4,8 C -2,6 C
14.02.2012 04:12 -2,5 C 85 % 1016,1 hPa 0,0 l/m 1,8 km/h (1 Bft) SO 135 -4,7 C -2,5 C
14.02.2012 04:17 -2,5 C 85 % 1016,1 hPa 0,0 l/m 0,0 km/h (0 Bft) SO 135 -4,7 C -2,5 C
14.02.2012 04:22 -2,5 C 85 % 1016,0 hPa 0,0 l/m 0,0 km/h (0 Bft) SO 135 -4,7 C -2,5 C
14.02.2012 04:27 -2,4 C 85 % 1016,0 hPa 0,0 l/m 2,5 km/h (1 Bft) SO 135 -4,6 C -2,4 C
14.02.2012 04:32 -2,4 C 85 % 1015,9 hPa 0,0 l/m 0,0 km/h (0 Bft) SO 135 -4,6 C -2,4 C
14.02.2012 04:37 -2,4 C 85 % 1015,8 hPa 0,0 l/m 0,0 km/h (0 Bft) SO 135 -4,6 C -2,4 C
14.02.2012 04:42 -2,4 C 85 % 1015,9 hPa 0,0 l/m 2,9 km/h (1 Bft) SO 135 -4,6 C -2,4 C
14.02.2012 04:47 -2,4 C 85 % 1015,7 hPa 0,0 l/m 3,6 km/h (1 Bft) SO 135 -4,6 C -2,4 C
14.02.2012 04:52 -2,4 C 85 % 1015,9 hPa 0,0 l/m 0,0 km/h (0 Bft) SO 135 -4,6 C -2,4 C
14.02.2012 04:57 -2,4 C 85 % 1015,8 hPa 0,0 l/m 2,2 km/h (1 Bft) SO 135 -4,6 C -2,4 C
14.02.2012 05:02 -2,2 C 85 % 1015,7 hPa 0,0 l/m 0,0 km/h (0 Bft) SO 135 -4,4 C -2,2 C
14.02.2012 05:07 -2,2 C 85 % 1015,7 hPa 0,0 l/m 0,0 km/h (0 Bft) SO 135 -4,4 C -2,2 C
14.02.2012 05:12 -2,2 C 85 % 1015,6 hPa 0,0 l/m 2,5 km/h (1 Bft) SO 135 -4,4 C -2,2 C
14.02.2012 05:17 -2,2 C 85 % 1015,6 hPa 0,0 l/m 1,4 km/h (1 Bft) SO 135 -4,4 C -2,2 C
14.02.2012 05:22 -2,2 C 85 % 1015,7 hPa 0,0 l/m 1,1 km/h (1 Bft) SO 135 -4,4 C -2,2 C
14.02.2012 05:27 -2,2 C 85 % 1015,5 hPa 0,0 l/m 0,0 km/h (0 Bft) SO 135 -4,4 C -2,2 C
14.02.2012 05:32 -2,2 C 85 % 1015,6 hPa 0,0 l/m 2,2 km/h (1 Bft) SO 135 -4,4 C -2,2 C
14.02.2012 05:37 -2,1 C 85 % 1015,5 hPa 0,0 l/m 3,2 km/h (1 Bft) S-SO 157 -4,3 C -2,1 C
14.02.2012 05:42 -2,1 C 85 % 1015,4 hPa 0,0 l/m 0,0 km/h (0 Bft) SO 135 -4,3 C -2,1 C
14.02.2012 05:47 -2,1 C 85 % 1015,2 hPa 0,0 l/m 1,4 km/h (1 Bft) SO 135 -4,3 C -2,1 C
14.02.2012 05:52 -2,1 C 85 % 1015,2 hPa 0,0 l/m 1,4 km/h (1 Bft) SO 135 -4,3 C -2,1 C
14.02.2012 05:57 -2,1 C 85 % 1015,3 hPa 0,0 l/m 4,7 km/h (1 Bft) S-SW 202 -4,3 C -3,8 C
14.02.2012 06:02 -2,0 C 85 % 1015,3 hPa 0,0 l/m 6,5 km/h (2 Bft) S-SO 157 -4,2 C -4,5 C
14.02.2012 06:07 -1,9 C 85 % 1015,3 hPa 0,0 l/m 4,7 km/h (1 Bft) S-SO 157 -4,1 C -3,6 C
14.02.2012 06:12 -1,9 C 85 % 1015,4 hPa 0,0 l/m 4,0 km/h (1 Bft) S 180 -4,1 C -1,9 C
14.02.2012 06:17 -1,9 C 85 % 1015,3 hPa 0,0 l/m 6,1 km/h (2 Bft) S-SO 157 -4,1 C -4,3 C
14.02.2012 06:22 -1,9 C 86 % 1015,4 hPa 0,0 l/m 2,2 km/h (1 Bft) SO 135 -3,9 C -1,9 C
14.02.2012 06:27 -1,9 C 86 % 1015,3 hPa 0,0 l/m 4,7 km/h (1 Bft) S-SW 202 -3,9 C -3,6 C
14.02.2012 06:32 -1,9 C 86 % 1015,3 hPa 0,0 l/m 4,3 km/h (1 Bft) S 180 -3,9 C -1,9 C
14.02.2012 06:37 -1,9 C 86 % 1015,2 hPa 0,0 l/m 7,9 km/h (2 Bft) S-SO 157 -3,9 C -4,9 C
14.02.2012 06:42 -1,9 C 86 % 1015,1 hPa 0,0 l/m 2,2 km/h (1 Bft) SO 135 -3,9 C -1,9 C
14.02.2012 06:47 -1,9 C 86 % 1015,2 hPa 0,0 l/m 3,2 km/h (1 Bft) SO 135 -3,9 C -1,9 C
14.02.2012 06:52 -1,9 C 86 % 1015,1 hPa 0,0 l/m 3,6 km/h (1 Bft) S-SW 202 -3,9 C -1,9 C
14.02.2012 06:57 -1,9 C 86 % 1015,1 hPa 0,0 l/m 3,2 km/h (1 Bft) S-SO 157 -3,9 C -1,9 C
14.02.2012 07:02 -1,9 C 86 % 1015,1 hPa 0,0 l/m 3,2 km/h (1 Bft) SO 135 -3,9 C -1,9 C
14.02.2012 07:07 -1,8 C 86 % 1015,1 hPa 0,0 l/m 0,0 km/h (0 Bft) S-SO 157 -3,8 C -1,8 C
14.02.2012 07:12 -1,8 C 86 % 1015,1 hPa 0,0 l/m 5,0 km/h (1 Bft) S-SO 157 -3,8 C -3,6 C
14.02.2012 07:17 -1,8 C 86 % 1015,0 hPa 0,0 l/m 3,2 km/h (1 Bft) S-SO 157 -3,8 C -1,8 C
14.02.2012 07:22 -1,8 C 86 % 1015,2 hPa 0,0 l/m 2,9 km/h (1 Bft) S-SW 202 -3,8 C -1,8 C
14.02.2012 07:27 -1,8 C 86 % 1015,1 hPa 0,0 l/m 2,9 km/h (1 Bft) S 180 -3,8 C -1,8 C
14.02.2012 07:32 -1,8 C 86 % 1015,2 hPa 0,0 l/m 4,3 km/h (1 Bft) S-SO 157 -3,8 C -1,8 C
14.02.2012 07:37 -1,8 C 86 % 1015,1 hPa 0,0 l/m 8,6 km/h (2 Bft) S-SW 202 -3,8 C -5,0 C
14.02.2012 07:42 -1,8 C 86 % 1015,2 hPa 0,0 l/m 3,2 km/h (1 Bft) S 180 -3,8 C -1,8 C
14.02.2012 07:47 -1,7 C 86 % 1015,3 hPa 0,0 l/m 7,2 km/h (2 Bft) S 180 -3,7 C -4,5 C
14.02.2012 07:52 -1,7 C 86 % 1015,3 hPa 0,0 l/m 4,7 km/h (1 Bft) S-SW 202 -3,7 C -3,4 C
14.02.2012 07:57 -1,7 C 86 % 1015,4 hPa 0,0 l/m 5,0 km/h (1 Bft) SW 225 -3,7 C -3,5 C
14.02.2012 08:02 -1,7 C 86 % 1015,2 hPa 0,0 l/m 9,7 km/h (2 Bft) S 180 -3,7 C -5,3 C
14.02.2012 08:07 -1,7 C 86 % 1015,3 hPa 0,0 l/m 2,9 km/h (1 Bft) SO 135 -3,7 C -1,7 C
14.02.2012 08:12 -1,6 C 86 % 1015,3 hPa 0,0 l/m 3,6 km/h (1 Bft) S-SO 157 -3,6 C -1,6 C
14.02.2012 08:17 -1,6 C 86 % 1015,3 hPa 0,0 l/m 5,0 km/h (1 Bft) S 180 -3,6 C -3,4 C
14.02.2012 08:22 -1,6 C 86 % 1015,2 hPa 0,0 l/m 6,5 km/h (2 Bft) SO 135 -3,6 C -4,1 C
14.02.2012 08:27 -1,6 C 86 % 1015,2 hPa 0,0 l/m 4,7 km/h (1 Bft) SO 135 -3,6 C -3,3 C
14.02.2012 08:32 -1,6 C 86 % 1015,1 hPa 0,0 l/m 2,2 km/h (1 Bft) SO 135 -3,6 C -1,6 C
14.02.2012 08:37 -1,6 C 86 % 1015,2 hPa 0,0 l/m 2,9 km/h (1 Bft) SO 135 -3,6 C -1,6 C
14.02.2012 08:42 -1,6 C 87 % 1015,2 hPa 0,0 l/m 3,6 km/h (1 Bft) SO 135 -3,5 C -1,6 C
14.02.2012 08:47 -1,5 C 87 % 1015,3 hPa 0,0 l/m 4,7 km/h (1 Bft) S-SW 202 -3,4 C -3,1 C
14.02.2012 08:52 -1,5 C 87 % 1015,1 hPa 0,0 l/m 4,3 km/h (1 Bft) SO 135 -3,4 C -1,5 C
14.02.2012 08:57 -1,5 C 87 % 1015,3 hPa 0,0 l/m 3,6 km/h (1 Bft) S-SO 157 -3,4 C -1,5 C
14.02.2012 09:02 -1,5 C 87 % 1015,0 hPa 0,0 l/m 6,1 km/h (2 Bft) SO 135 -3,4 C -3,8 C
14.02.2012 09:07 -1,5 C 87 % 1015,0 hPa 0,0 l/m 4,7 km/h (1 Bft) S-SO 157 -3,4 C -3,1 C
14.02.2012 09:12 -1,4 C 87 % 1015,0 hPa 0,0 l/m 4,7 km/h (1 Bft) SO 135 -3,3 C -3,0 C
14.02.2012 09:17 -1,3 C 87 % 1015,0 hPa 0,0 l/m 7,6 km/h (2 Bft) SO 135 -3,2 C -4,1 C
14.02.2012 09:22 -1,2 C 87 % 1015,1 hPa 0,0 l/m 4,0 km/h (1 Bft) S-SW 202 -3,1 C -1,2 C
14.02.2012 09:27 -1,2 C 87 % 1015,0 hPa 0,0 l/m 5,8 km/h (2 Bft) S-SO 157 -3,1 C -3,3 C
14.02.2012 09:32 -1,2 C 87 % 1014,9 hPa 0,0 l/m 5,8 km/h (2 Bft) S-SW 202 -3,1 C -3,3 C
14.02.2012 09:37 -1,1 C 87 % 1014,9 hPa 0,0 l/m 7,6 km/h (2 Bft) S 180 -3,0 C -3,9 C
14.02.2012 09:42 -1,1 C 87 % 1014,7 hPa 0,0 l/m 2,9 km/h (1 Bft) S 180 -3,0 C -1,1 C
14.02.2012 09:47 -1,0 C 87 % 1014,8 hPa 0,0 l/m 5,8 km/h (2 Bft) S-SO 157 -2,9 C -3,1 C
14.02.2012 09:52 -1,0 C 87 % 1014,7 hPa 0,0 l/m 2,2 km/h (1 Bft) S-SO 157 -2,9 C -1,0 C
14.02.2012 09:57 -0,9 C 87 % 1014,5 hPa 0,0 l/m 8,3 km/h (2 Bft) S 180 -2,8 C -3,9 C
14.02.2012 10:02 -0,8 C 87 % 1014,7 hPa 0,0 l/m 10,1 km/h (2 Bft) SO 135 -2,7 C -4,3 C
14.02.2012 10:07 -0,7 C 87 % 1014,5 hPa 0,0 l/m 8,3 km/h (2 Bft) W-SW 247 -2,6 C -3,7 C
14.02.2012 10:12 -0,7 C 87 % 1014,4 hPa 0,0 l/m 11,5 km/h (2 Bft) S 180 -2,6 C -4,5 C
14.02.2012 10:17 -0,6 C 87 % 1014,6 hPa 0,0 l/m 12,6 km/h (3 Bft) S 180 -2,5 C -4,7 C
14.02.2012 10:22 -0,5 C 86 % 1014,5 hPa 0,0 l/m 5,4 km/h (1 Bft) S-SO 157 -2,5 C -2,3 C
14.02.2012 10:27 -0,4 C 86 % 1014,6 hPa 0,0 l/m 7,2 km/h (2 Bft) S-SO 157 -2,4 C -2,9 C
14.02.2012 10:32 -0,4 C 86 % 1014,6 hPa 0,0 l/m 6,1 km/h (2 Bft) S-SO 157 -2,4 C -2,5 C
14.02.2012 10:37 -0,4 C 86 % 1014,5 hPa 0,0 l/m 5,0 km/h (1 Bft) S 180 -2,4 C -2,0 C
14.02.2012 10:42 -0,4 C 86 % 1014,6 hPa 0,0 l/m 5,8 km/h (2 Bft) W-SW 247 -2,4 C -2,4 C
14.02.2012 10:47 -0,2 C 86 % 1014,5 hPa 0,0 l/m 11,2 km/h (2 Bft) SW 225 -2,3 C -3,9 C
14.02.2012 10:52 -0,2 C 86 % 1014,7 hPa 0,0 l/m 4,7 km/h (1 Bft) S-SW 202 -2,3 C -1,7 C
14.02.2012 10:57 -0,1 C 86 % 1014,6 hPa 0,0 l/m 9,0 km/h (2 Bft) S-SO 157 -2,2 C -3,2 C
14.02.2012 11:02 -0,1 C 86 % 1014,5 hPa 0,0 l/m 6,1 km/h (2 Bft) S-SW 202 -2,2 C -2,2 C
14.02.2012 11:07 -0,1 C 86 % 1014,7 hPa 0,0 l/m 5,8 km/h (2 Bft) S-SW 202 -2,2 C -2,1 C
14.02.2012 11:12 0,1 C 86 % 1014,7 hPa 0,0 l/m 7,2 km/h (2 Bft) S 180 -2,0 C -2,4 C
14.02.2012 11:17 0,1 C 86 % 1014,7 hPa 0,0 l/m 7,6 km/h (2 Bft) S-SO 157 -2,0 C -2,5 C
14.02.2012 11:22 0,3 C 86 % 1014,6 hPa 0,0 l/m 7,6 km/h (2 Bft) S 180 -1,8 C -2,3 C
14.02.2012 11:27 0,3 C 86 % 1014,3 hPa 0,0 l/m 11,2 km/h (2 Bft) S-SO 157 -1,8 C -3,3 C
14.02.2012 11:32 0,3 C 86 % 1014,4 hPa 0,0 l/m 11,2 km/h (2 Bft) S 180 -1,8 C -3,3 C
14.02.2012 11:37 0,4 C 86 % 1014,5 hPa 0,0 l/m 8,3 km/h (2 Bft) S 180 -1,7 C -2,4 C
14.02.2012 11:42 0,5 C 86 % 1014,2 hPa 0,0 l/m 8,6 km/h (2 Bft) S-SW 202 -1,6 C -2,3 C
14.02.2012 11:47 0,6 C 86 % 1014,2 hPa 0,0 l/m 4,7 km/h (1 Bft) S-SO 157 -1,5 C -0,8 C
14.02.2012 11:52 0,6 C 86 % 1014,0 hPa 0,0 l/m 5,4 km/h (1 Bft) S-SO 157 -1,5 C -1,1 C
14.02.2012 11:57 0,7 C 86 % 1014,4 hPa 0,0 l/m 4,7 km/h (1 Bft) S 180 -1,4 C -0,7 C
14.02.2012 12:02 0,8 C 86 % 1014,2 hPa 0,0 l/m 0,0 km/h (0 Bft) S 180 -1,3 C 0,8 C
14.02.2012 12:07 0,9 C 86 % 1014,0 hPa 0,0 l/m 7,6 km/h (2 Bft) S-SW 202 -1,2 C -1,6 C
14.02.2012 12:12 0,9 C 86 % 1013,9 hPa 0,0 l/m 5,8 km/h (2 Bft) S 180 -1,2 C -0,9 C
14.02.2012 12:17 1,1 C 86 % 1013,9 hPa 0,0 l/m 4,3 km/h (1 Bft) S-SO 157 -1,0 C 1,1 C
14.02.2012 12:22 1,2 C 86 % 1013,7 hPa 0,0 l/m 4,7 km/h (1 Bft) S-SO 157 -0,9 C -0,1 C
14.02.2012 12:27 1,3 C 85 % 1013,6 hPa 0,0 l/m 4,7 km/h (1 Bft) SO 135 -0,9 C 0,0 C
14.02.2012 12:32 1,3 C 85 % 1013,6 hPa 0,0 l/m 10,4 km/h (2 Bft) S-SW 202 -0,9 C -1,9 C
14.02.2012 12:37 1,3 C 85 % 1013,6 hPa 0,0 l/m 8,3 km/h (2 Bft) S 180 -0,9 C -1,3 C
14.02.2012 12:42 1,3 C 85 % 1013,5 hPa 0,0 l/m 9,0 km/h (2 Bft) SO 135 -0,9 C -1,5 C
14.02.2012 12:47 1,4 C 85 % 1013,4 hPa 0,0 l/m 7,6 km/h (2 Bft) S-SO 157 -0,8 C -1,0 C
14.02.2012 12:52 1,4 C 85 % 1013,4 hPa 0,0 l/m 6,1 km/h (2 Bft) S-SO 157 -0,8 C -0,5 C
14.02.2012 12:57 1,5 C 85 % 1013,4 hPa 0,0 l/m 4,3 km/h (1 Bft) S 180 -0,7 C 1,5 C
14.02.2012 13:02 1,6 C 85 % 1013,1 hPa 0,0 l/m 5,4 km/h (1 Bft) S 180 -0,6 C 0,1 C
14.02.2012 13:07 1,6 C 85 % 1013,1 hPa 0,0 l/m 5,8 km/h (2 Bft) S 180 -0,6 C -0,1 C
14.02.2012 13:12 1,8 C 85 % 1013,0 hPa 0,0 l/m 4,3 km/h (1 Bft) S 180 -0,4 C 1,8 C
14.02.2012 13:17 1,8 C 85 % 1012,7 hPa 0,0 l/m 7,6 km/h (2 Bft) S 180 -0,4 C -0,5 C
14.02.2012 13:22 1,8 C 85 % 1012,4 hPa 0,0 l/m 6,8 km/h (2 Bft) S-SO 157 -0,4 C -0,2 C
14.02.2012 13:27 1,8 C 85 % 1012,4 hPa 0,0 l/m 7,2 km/h (2 Bft) SO 135 -0,4 C -0,4 C
14.02.2012 13:32 1,9 C 84 % 1012,2 hPa 0,0 l/m 10,4 km/h (2 Bft) S-SO 157 -0,5 C -1,1 C
14.02.2012 13:37 1,9 C 84 % 1012,1 hPa 0,0 l/m 6,5 km/h (2 Bft) S-SW 202 -0,5 C -0,0 C
14.02.2012 13:42 1,9 C 84 % 1012,0 hPa 0,0 l/m 12,2 km/h (2 Bft) SW 225 -0,5 C -1,5 C
14.02.2012 13:47 1,9 C 84 % 1012,0 hPa 0,0 l/m 10,4 km/h (2 Bft) S-SO 157 -0,5 C -1,1 C
14.02.2012 13:52 1,9 C 84 % 1011,9 hPa 0,0 l/m 5,4 km/h (1 Bft) S-SO 157 -0,5 C 0,4 C
14.02.2012 13:57 1,9 C 84 % 1011,7 hPa 0,0 l/m 8,6 km/h (2 Bft) S 180 -0,5 C -0,7 C
14.02.2012 14:02 1,9 C 84 % 1011,7 hPa 0,0 l/m 10,1 km/h (2 Bft) S 180 -0,5 C -1,1 C
14.02.2012 14:07 1,8 C 84 % 1011,7 hPa 0,0 l/m 5,4 km/h (1 Bft) S-SW 202 -0,6 C 0,3 C
14.02.2012 14:12 1,8 C 84 % 1011,6 hPa 0,0 l/m 2,9 km/h (1 Bft) S-SW 202 -0,6 C 1,8 C
14.02.2012 14:17 1,8 C 84 % 1011,6 hPa 0,0 l/m 9,4 km/h (2 Bft) SW 225 -0,6 C -1,0 C
14.02.2012 14:22 1,8 C 84 % 1011,7 hPa 0,0 l/m 12,6 km/h (3 Bft) S 180 -0,6 C -1,7 C
14.02.2012 14:27 1,8 C 84 % 1011,7 hPa 0,0 l/m 8,3 km/h (2 Bft) S-SW 202 -0,6 C -0,7 C
14.02.2012 14:32 1,8 C 85 % 1011,5 hPa 0,0 l/m 4,7 km/h (1 Bft) S 180 -0,4 C 0,6 C
14.02.2012 14:37 1,8 C 85 % 1011,5 hPa 0,0 l/m 4,0 km/h (1 Bft) S-SO 157 -0,4 C 1,8 C
14.02.2012 14:42 1,8 C 85 % 1011,4 hPa 0,0 l/m 10,4 km/h (2 Bft) SW 225 -0,4 C -1,3 C
14.02.2012 14:47 1,8 C 85 % 1011,4 hPa 0,0 l/m 9,7 km/h (2 Bft) S-SO 157 -0,4 C -1,1 C
14.02.2012 14:52 1,8 C 85 % 1011,3 hPa 0,0 l/m 7,2 km/h (2 Bft) SW 225 -0,4 C -0,4 C
14.02.2012 14:57 1,8 C 85 % 1011,3 hPa 0,0 l/m 5,0 km/h (1 Bft) S 180 -0,4 C 0,5 C
14.02.2012 15:02 1,8 C 85 % 1011,1 hPa 0,0 l/m 2,9 km/h (1 Bft) S-SW 202 -0,4 C 1,8 C
14.02.2012 15:07 1,8 C 85 % 1011,1 hPa 0,0 l/m 8,3 km/h (2 Bft) S-SW 202 -0,4 C -0,7 C
14.02.2012 15:12 1,8 C 85 % 1011,0 hPa 0,0 l/m 7,6 km/h (2 Bft) S 180 -0,4 C -0,5 C
14.02.2012 15:17 1,8 C 85 % 1010,9 hPa 0,0 l/m 9,4 km/h (2 Bft) S-SW 202 -0,4 C -1,0 C
14.02.2012 15:22 1,8 C 86 % 1010,9 hPa 0,0 l/m 11,9 km/h (2 Bft) SW 225 -0,3 C -1,6 C
14.02.2012 15:27 1,8 C 86 % 1010,8 hPa 0,0 l/m 14,8 km/h (3 Bft) SW 225 -0,3 C -2,2 C
14.02.2012 15:32 1,8 C 86 % 1010,8 hPa 0,0 l/m 4,0 km/h (1 Bft) S-SW 202 -0,3 C 1,8 C
14.02.2012 15:37 1,8 C 86 % 1010,7 hPa 0,0 l/m 12,6 km/h (3 Bft) SW 225 -0,3 C -1,7 C
14.02.2012 15:42 1,8 C 86 % 1010,7 hPa 0,0 l/m 5,8 km/h (2 Bft) S 180 -0,3 C 0,1 C
14.02.2012 15:47 1,8 C 86 % 1010,7 hPa 0,0 l/m 14,0 km/h (3 Bft) W-SW 247 -0,3 C -2,0 C
14.02.2012 15:52 1,8 C 86 % 1010,6 hPa 0,0 l/m 5,8 km/h (2 Bft) S-SW 202 -0,3 C 0,1 C
14.02.2012 15:57 1,8 C 86 % 1010,5 hPa 0,0 l/m 10,1 km/h (2 Bft) SW 225 -0,3 C -1,2 C
14.02.2012 16:02 1,8 C 86 % 1010,5 hPa 0,0 l/m 6,8 km/h (2 Bft) W 270 -0,3 C -0,2 C
14.02.2012 16:07 1,8 C 86 % 1010,3 hPa 0,0 l/m 11,5 km/h (2 Bft) S-SW 202 -0,3 C -1,5 C
14.02.2012 16:12 1,8 C 86 % 1010,4 hPa 0,0 l/m 9,4 km/h (2 Bft) SW 225 -0,3 C -1,0 C
14.02.2012 16:17 1,8 C 86 % 1010,3 hPa 0,0 l/m 10,8 km/h (2 Bft) S 180 -0,3 C -1,4 C
14.02.2012 16:22 1,8 C 86 % 1010,1 hPa 0,0 l/m 8,3 km/h (2 Bft) S-SW 202 -0,3 C -0,7 C
14.02.2012 16:27 1,7 C 87 % 1010,2 hPa 0,0 l/m 2,9 km/h (1 Bft) SW 225 -0,2 C 1,7 C
14.02.2012 16:32 1,6 C 87 % 1010,1 hPa 0,0 l/m 4,3 km/h (1 Bft) W-SW 247 -0,3 C 1,6 C
14.02.2012 16:37 1,6 C 87 % 1010,0 hPa 0,0 l/m 3,6 km/h (1 Bft) S 180 -0,3 C 1,6 C
14.02.2012 16:42 1,6 C 87 % 1010,1 hPa 0,0 l/m 6,8 km/h (2 Bft) W-SW 247 -0,3 C -0,5 C
14.02.2012 16:47 1,6 C 88 % 1009,8 hPa 0,0 l/m 9,7 km/h (2 Bft) W-SW 247 -0,2 C -1,3 C
14.02.2012 16:52 1,6 C 88 % 1009,6 hPa 0,0 l/m 5,8 km/h (2 Bft) W-SW 247 -0,2 C -0,1 C
14.02.2012 16:57 1,6 C 88 % 1009,7 hPa 0,0 l/m 8,3 km/h (2 Bft) W 270 -0,2 C -0,9 C
14.02.2012 17:02 1,6 C 88 % 1009,4 hPa 0,0 l/m 5,0 km/h (1 Bft) W-SW 247 -0,2 C 0,2 C
14.02.2012 17:07 1,6 C 89 % 1009,3 hPa 0,0 l/m 10,4 km/h (2 Bft) W 270 -0,0 C -1,5 C
14.02.2012 17:12 1,6 C 89 % 1009,5 hPa 0,0 l/m 10,1 km/h (2 Bft) W 270 -0,0 C -1,4 C
14.02.2012 17:17 1,6 C 89 % 1009,3 hPa 0,0 l/m 9,4 km/h (2 Bft) W 270 -0,0 C -1,3 C
14.02.2012 17:22 1,6 C 89 % 1009,1 hPa 0,0 l/m 8,6 km/h (2 Bft) W-SW 247 -0,0 C -1,0 C
14.02.2012 17:27 1,6 C 90 % 1009,2 hPa 0,0 l/m 10,4 km/h (2 Bft) SW 225 0,1 C -1,5 C
14.02.2012 17:32 1,6 C 90 % 1009,0 hPa 0,0 l/m 11,9 km/h (2 Bft) W 270 0,1 C -1,8 C
14.02.2012 17:37 1,6 C 90 % 1008,8 hPa 0,0 l/m 12,6 km/h (3 Bft) W-SW 247 0,1 C -2,0 C
14.02.2012 17:42 1,6 C 90 % 1008,7 hPa 0,0 l/m 5,0 km/h (1 Bft) W 270 0,1 C 0,2 C
14.02.2012 17:47 1,6 C 90 % 1008,8 hPa 0,0 l/m 9,7 km/h (2 Bft) W-SW 247 0,1 C -1,3 C
14.02.2012 17:52 1,6 C 90 % 1008,7 hPa 0,0 l/m 14,4 km/h (3 Bft) SW 225 0,1 C -2,3 C
14.02.2012 17:57 1,6 C 90 % 1008,5 hPa 0,0 l/m 8,3 km/h (2 Bft) W-SW 247 0,1 C -0,9 C
14.02.2012 18:02 1,6 C 90 % 1008,5 hPa 0,0 l/m 5,8 km/h (2 Bft) W 270 0,1 C -0,1 C
14.02.2012 18:07 1,6 C 90 % 1008,4 hPa 0,0 l/m 8,3 km/h (2 Bft) S 180 0,1 C -0,9 C
14.02.2012 18:12 1,6 C 90 % 1008,1 hPa 0,0 l/m 11,9 km/h (2 Bft) W-SW 247 0,1 C -1,8 C
14.02.2012 18:17 1,6 C 90 % 1008,1 hPa 0,0 l/m 7,2 km/h (2 Bft) W 270 0,1 C -0,6 C
14.02.2012 18:22 1,6 C 90 % 1008,2 hPa 0,0 l/m 10,8 km/h (2 Bft) W-SW 247 0,1 C -1,6 C
14.02.2012 18:27 1,6 C 90 % 1007,8 hPa 0,0 l/m 10,8 km/h (2 Bft) W-SW 247 0,1 C -1,6 C
14.02.2012 18:32 1,7 C 90 % 1007,9 hPa 0,0 l/m 9,0 km/h (2 Bft) W-SW 247 0,2 C -1,0 C
14.02.2012 18:37 1,7 C 90 % 1007,7 hPa 0,0 l/m 13,7 km/h (3 Bft) W 270 0,2 C -2,1 C
14.02.2012 18:42 1,8 C 90 % 1007,4 hPa 0,0 l/m 20,5 km/h (4 Bft) SW 225 0,3 C -3,0 C
14.02.2012 18:47 1,8 C 90 % 1007,6 hPa 0,0 l/m 8,3 km/h (2 Bft) SW 225 0,3 C -0,7 C
14.02.2012 18:52 1,8 C 90 % 1007,4 hPa 0,0 l/m 13,3 km/h (3 Bft) W 270 0,3 C -1,9 C
14.02.2012 18:57 1,8 C 90 % 1007,3 hPa 0,0 l/m 11,5 km/h (2 Bft) W-SW 247 0,3 C -1,5 C
14.02.2012 19:02 1,8 C 90 % 1007,2 hPa 0,0 l/m 19,4 km/h (3 Bft) W-SW 247 0,3 C -2,9 C
14.02.2012 19:07 1,8 C 90 % 1007,2 hPa 0,0 l/m 15,5 km/h (3 Bft) W 270 0,3 C -2,3 C
14.02.2012 19:12 1,8 C 90 % 1007,0 hPa 0,0 l/m 16,2 km/h (3 Bft) W-SW 247 0,3 C -2,4 C
14.02.2012 19:17 1,8 C 90 % 1007,1 hPa 0,0 l/m 10,1 km/h (2 Bft) W-SW 247 0,3 C -1,2 C
14.02.2012 19:22 1,8 C 90 % 1006,9 hPa 0,0 l/m 12,6 km/h (3 Bft) W 270 0,3 C -1,7 C
14.02.2012 19:27 1,8 C 90 % 1006,9 hPa 0,0 l/m 7,6 km/h (2 Bft) SW 225 0,3 C -0,5 C
14.02.2012 19:32 1,9 C 89 % 1006,7 hPa 0,0 l/m 7,6 km/h (2 Bft) W-NW 292 0,3 C -0,4 C
14.02.2012 19:37 1,9 C 89 % 1006,6 hPa 0,0 l/m 6,1 km/h (2 Bft) W-SW 247 0,3 C 0,1 C
14.02.2012 19:42 1,9 C 89 % 1006,4 hPa 0,0 l/m 18,7 km/h (3 Bft) W 270 0,3 C -2,7 C
14.02.2012 19:47 1,9 C 89 % 1006,4 hPa 0,0 l/m 8,6 km/h (2 Bft) W-SW 247 0,3 C -0,7 C
14.02.2012 19:52 1,9 C 89 % 1006,4 hPa 0,0 l/m 7,2 km/h (2 Bft) W-NW 292 0,3 C -0,3 C
14.02.2012 19:57 1,9 C 89 % 1006,1 hPa 0,0 l/m 12,2 km/h (2 Bft) W 270 0,3 C -1,5 C
14.02.2012 20:02 1,9 C 88 % 1005,9 hPa 0,0 l/m 11,9 km/h (2 Bft) W 270 0,1 C -1,5 C
14.02.2012 20:07 1,9 C 88 % 1005,9 hPa 0,0 l/m 12,2 km/h (2 Bft) W-SW 247 0,1 C -1,5 C
14.02.2012 20:12 1,9 C 88 % 1005,9 hPa 0,0 l/m 14,4 km/h (3 Bft) W-SW 247 0,1 C -2,0 C
14.02.2012 20:17 1,9 C 88 % 1005,7 hPa 0,0 l/m 7,2 km/h (2 Bft) W 270 0,1 C -0,3 C
14.02.2012 20:22 1,9 C 88 % 1005,5 hPa 0,0 l/m 7,2 km/h (2 Bft) SW 225 0,1 C -0,3 C
14.02.2012 20:27 1,9 C 88 % 1005,3 hPa 0,0 l/m 7,9 km/h (2 Bft) W-SW 247 0,1 C -0,5 C
14.02.2012 20:32 1,9 C 88 % 1005,2 hPa 0,0 l/m 9,7 km/h (2 Bft) SW 225 0,1 C -1,0 C
14.02.2012 20:37 1,9 C 88 % 1005,4 hPa 0,0 l/m 7,9 km/h (2 Bft) W-NW 292 0,1 C -0,5 C
14.02.2012 20:42 1,9 C 88 % 1005,6 hPa 0,0 l/m 4,0 km/h (1 Bft) W-NW 292 0,1 C 1,9 C
14.02.2012 20:47 1,9 C 88 % 1005,5 hPa 0,0 l/m 11,5 km/h (2 Bft) W-SW 247 0,1 C -1,4 C
14.02.2012 20:52 1,9 C 88 % 1005,4 hPa 0,0 l/m 10,1 km/h (2 Bft) W 270 0,1 C -1,1 C
14.02.2012 20:57 1,9 C 88 % 1005,4 hPa 0,0 l/m 10,8 km/h (2 Bft) W 270 0,1 C -1,2 C
14.02.2012 21:02 1,9 C 88 % 1005,2 hPa 0,0 l/m 6,5 km/h (2 Bft) W-NW 292 0,1 C -0,0 C
14.02.2012 21:07 1,9 C 88 % 1005,1 hPa 0,0 l/m 9,0 km/h (2 Bft) W-SW 247 0,1 C -0,8 C
14.02.2012 21:12 1,8 C 88 % 1005,1 hPa 0,0 l/m 14,8 km/h (3 Bft) W 270 0,0 C -2,2 C
14.02.2012 21:17 1,9 C 88 % 1004,9 hPa 0,0 l/m 9,7 km/h (2 Bft) W 270 0,1 C -1,0 C
14.02.2012 21:22 1,9 C 88 % 1004,6 hPa 0,0 l/m 8,6 km/h (2 Bft) W 270 0,1 C -0,7 C
14.02.2012 21:27 1,9 C 88 % 1004,5 hPa 0,0 l/m 10,1 km/h (2 Bft) W-NW 292 0,1 C -1,1 C
14.02.2012 21:32 1,9 C 88 % 1004,4 hPa 0,0 l/m 17,3 km/h (3 Bft) W 270 0,1 C -2,5 C
14.02.2012 21:37 1,9 C 88 % 1004,1 hPa 0,0 l/m 8,3 km/h (2 Bft) W-NW 292 0,1 C -0,6 C
14.02.2012 21:42 1,9 C 88 % 1004,1 hPa 0,0 l/m 18,4 km/h (3 Bft) W-SW 247 0,1 C -2,6 C
14.02.2012 21:47 1,9 C 88 % 1004,1 hPa 0,0 l/m 14,4 km/h (3 Bft) W 270 0,1 C -2,0 C
14.02.2012 21:52 1,9 C 88 % 1003,9 hPa 0,0 l/m 6,5 km/h (2 Bft) N-NW 337 0,1 C -0,0 C
14.02.2012 21:57 1,9 C 88 % 1003,9 hPa 0,0 l/m 6,8 km/h (2 Bft) W 270 0,1 C -0,1 C
14.02.2012 22:02 1,9 C 88 % 1003,6 hPa 0,0 l/m 24,5 km/h (4 Bft) W-SW 247 0,1 C -3,4 C
14.02.2012 22:07 2,0 C 88 % 1003,5 hPa 0,0 l/m 14,8 km/h (3 Bft) W-SW 247 0,2 C -1,9 C
14.02.2012 22:12 2,1 C 88 % 1003,4 hPa 0,0 l/m 18,4 km/h (3 Bft) W-SW 247 0,3 C -2,4 C
14.02.2012 22:17 2,1 C 88 % 1003,4 hPa 0,0 l/m 5,4 km/h (1 Bft) S-SW 202 0,3 C 0,6 C
14.02.2012 22:22 2,1 C 88 % 1003,1 hPa 0,0 l/m 13,0 km/h (3 Bft) W 270 0,3 C -1,5 C
14.02.2012 22:27 2,1 C 88 % 1002,6 hPa 0,0 l/m 7,9 km/h (2 Bft) W-NW 292 0,3 C -0,2 C
14.02.2012 22:32 2,1 C 88 % 1002,4 hPa 0,0 l/m 13,0 km/h (3 Bft) W-SW 247 0,3 C -1,5 C
14.02.2012 22:37 2,1 C 88 % 1002,2 hPa 0,0 l/m 16,6 km/h (3 Bft) W-SW 247 0,3 C -2,1 C
14.02.2012 22:42 2,0 C 88 % 1002,2 hPa 0,0 l/m 16,6 km/h (3 Bft) SW 225 0,2 C -2,2 C
14.02.2012 22:47 2,0 C 88 % 1002,3 hPa 0,0 l/m 10,4 km/h (2 Bft) W-SW 247 0,2 C -1,0 C
14.02.2012 22:52 2,0 C 88 % 1002,1 hPa 0,0 l/m 25,2 km/h (4 Bft) S-SW 202 0,2 C -3,4 C
14.02.2012 22:57 2,0 C 88 % 1001,8 hPa 0,0 l/m 14,8 km/h (3 Bft) W 270 0,2 C -1,9 C
14.02.2012 23:02 2,0 C 89 % 1001,6 hPa 0,0 l/m 15,1 km/h (3 Bft) W-SW 247 0,4 C -2,0 C
14.02.2012 23:07 2,0 C 89 % 1001,3 hPa 0,0 l/m 23,8 km/h (4 Bft) W-SW 247 0,4 C -3,2 C
14.02.2012 23:12 2,1 C 89 % 1001,2 hPa 0,0 l/m 12,6 km/h (3 Bft) W-SW 247 0,5 C -1,4 C
14.02.2012 23:17 2,1 C 89 % 1000,9 hPa 0,0 l/m 19,4 km/h (3 Bft) W-SW 247 0,5 C -2,5 C
14.02.2012 23:22 2,1 C 89 % 1000,7 hPa 0,0 l/m 20,2 km/h (4 Bft) W-SW 247 0,5 C -2,6 C
14.02.2012 23:27 2,1 C 89 % 1000,7 hPa 0,0 l/m 16,6 km/h (3 Bft) W-SW 247 0,5 C -2,1 C
14.02.2012 23:32 2,1 C 89 % 1000,4 hPa 0,0 l/m 25,6 km/h (4 Bft) W 270 0,5 C -3,3 C
14.02.2012 23:37 2,1 C 89 % 1000,4 hPa 0,0 l/m 16,6 km/h (3 Bft) W-SW 247 0,5 C -2,1 C
14.02.2012 23:42 2,1 C 89 % 1000,2 hPa 0,0 l/m 18,0 km/h (3 Bft) W-SW 247 0,5 C -2,3 C
14.02.2012 23:47 2,1 C 89 % 999,5 hPa 0,0 l/m 17,6 km/h (3 Bft) W-SW 247 0,5 C -2,2 C
14.02.2012 23:52 2,1 C 89 % 999,4 hPa 0,5 l/m 19,4 km/h (3 Bft) W 270 0,5 C -2,5 C
14.02.2012 23:57 2,1 C 89 % 999,3 hPa 0,0 l/m 13,3 km/h (3 Bft) W-SW 247 0,5 C -1,5 C
_ Min-Zeit 00:02 00:02 23:57 - 00:02 - - 00:02 01:47
Minimum _ -3,7 C 84 % 999,3 hPa - 0,0 km/h (0 Bft) - - -6,0 C -5,6 C
_ Max-Zeit 22:12 17:27 00:02 23:52 23:32 - - 23:12 20:42
Maximum _ 2,1 C 90 % 1017,2 hPa 0,5 l/m 25,6 km/h
W (4 Bft)
- - 0,5 C 1,9 C
Durchschnitt _ -0,1 C 86 % 1011,8 hPa #0,5 l/m 6,9 km/h (2 Bft) W-SW - -2,0 C -1,9 C
(c) by David Heller